Huron Township, Michigan
Current Conditions -  °F | °C
As of 2:53 AM on Saturday 25 Oct 2014 (Local Time) from KDTW Reporting Station
Haze Haze  
Wind Chill: 46°   Ceiling: 22000
Heat Index: 46°   Visibility: 4mi
Dew Point: 44°   Wind: 3mph
Humidity: 93%   Direction: 180°S
Pressure: 29.93"   Gusts: NA
Location:  42.1166°N, 83.4023°W
Report Text: KDTW 250653Z 18003KT 4SM BR BKN220 08/07 A2993 RMK AO2 SLP136 T00780067
Loading
Personal Weather Stations






























Interactive Weather Map
Tropical Storm Tracking
New forecast layout! Learn more

10-Day Weather Forecast

Advertisements
Track Severe Weather on mobile